createdAt,value
2018-11-02T00:01:56.446Z,35.93
2018-11-02T00:04:25.090Z,36.47
2018-11-02T00:06:53.717Z,37.20
2018-11-02T00:09:22.363Z,37.63
2018-11-02T00:11:51.001Z,36.80
2018-11-02T00:14:19.638Z,36.33
2018-11-02T00:16:48.273Z,35.97
2018-11-02T00:19:21.277Z,37.53
2018-11-02T00:21:49.910Z,37.03
2018-11-02T00:24:18.504Z,37.50
2018-11-02T00:26:47.159Z,39.83
2018-11-02T00:29:15.837Z,38.63
2018-11-02T00:31:44.499Z,39.00
2018-11-02T00:34:13.232Z,39.13
2018-11-02T00:36:41.853Z,37.67
2018-11-02T00:39:10.701Z,38.33
2018-11-02T00:41:39.499Z,39.47
2018-11-02T00:44:09.098Z,37.57
2018-11-02T00:46:37.872Z,38.33
2018-11-02T00:49:06.881Z,38.10
2018-11-02T00:51:36.393Z,37.37
2018-11-02T00:54:05.429Z,38.77
2018-11-02T00:56:34.145Z,39.67
2018-11-02T00:59:02.779Z,38.03
2018-11-02T01:01:31.461Z,39.43
2018-11-02T01:04:00.097Z,37.87
2018-11-02T01:06:29.202Z,37.07
2018-11-02T01:08:57.918Z,38.27
2018-11-02T01:11:26.612Z,39.83
2018-11-02T01:13:55.230Z,39.87
2018-11-02T01:16:23.947Z,38.43
2018-11-02T01:18:52.572Z,39.33
2018-11-02T01:21:21.213Z,41.53
2018-11-02T01:23:49.843Z,39.33
2018-11-02T01:26:18.484Z,37.40
2018-11-02T01:28:47.148Z,36.90
2018-11-02T01:31:15.793Z,37.47
2018-11-02T01:33:44.496Z,37.60
2018-11-02T01:36:13.173Z,37.53
2018-11-02T01:38:41.785Z,36.90
2018-11-02T01:41:10.473Z,37.33
2018-11-02T01:43:39.110Z,36.90
2018-11-02T01:46:07.749Z,35.83
2018-11-02T01:48:36.410Z,36.77
2018-11-02T01:51:05.087Z,35.67
2018-11-02T01:53:33.724Z,36.40
2018-11-02T01:56:02.360Z,36.00
2018-11-02T01:58:31.033Z,35.80
2018-11-02T02:00:59.694Z,36.97
2018-11-02T02:03:28.317Z,34.27
2018-11-02T02:05:57.029Z,34.53
2018-11-02T02:08:25.666Z,34.77
2018-11-02T02:10:54.362Z,34.60
2018-11-02T02:13:23.164Z,34.80
2018-11-02T02:15:51.671Z,34.43
2018-11-02T02:18:20.339Z,35.47
2018-11-02T02:20:49.007Z,34.97
2018-11-02T02:23:17.688Z,34.93
2018-11-02T02:25:46.389Z,35.87
2018-11-02T02:28:15.083Z,33.30
2018-11-02T02:30:43.726Z,34.23
2018-11-02T02:33:12.363Z,35.10
2018-11-02T02:35:41.081Z,35.93
2018-11-02T02:38:09.787Z,33.27
2018-11-02T02:40:38.454Z,33.27
2018-11-02T02:43:07.123Z,33.50
2018-11-02T02:45:35.795Z,32.77
2018-11-02T02:48:04.529Z,33.53
2018-11-02T02:50:33.188Z,34.37
2018-11-02T02:53:01.815Z,34.57
2018-11-02T02:55:30.476Z,35.83
2018-11-02T02:57:59.100Z,35.87
2018-11-02T03:00:27.848Z,34.37
2018-11-02T03:02:56.577Z,32.73
2018-11-02T03:05:25.320Z,33.43
2018-11-02T03:07:53.960Z,34.47
2018-11-02T03:10:22.710Z,38.37
2018-11-02T03:12:51.313Z,34.23
2018-11-02T03:15:19.962Z,34.93
2018-11-02T03:17:48.594Z,34.50
2018-11-02T03:20:17.341Z,35.53
2018-11-02T03:22:46.067Z,35.23
2018-11-02T03:25:14.765Z,34.47
2018-11-02T03:27:43.445Z,37.90
2018-11-02T03:30:12.652Z,36.93
2018-11-02T03:32:41.546Z,35.77
2018-11-02T03:35:10.630Z,35.10
2018-11-02T03:37:39.333Z,36.70
2018-11-02T03:40:09.443Z,35.70
2018-11-02T03:42:38.090Z,35.47
2018-11-02T03:45:07.040Z,36.60
2018-11-02T03:47:35.759Z,36.13
2018-11-02T03:50:04.646Z,35.17
2018-11-02T03:52:33.341Z,37.00
2018-11-02T03:55:02.003Z,36.23
2018-11-02T03:57:30.646Z,35.47
2018-11-02T03:59:59.457Z,36.60
2018-11-02T04:02:28.106Z,35.13
2018-11-02T04:04:56.858Z,34.73
2018-11-02T04:07:25.530Z,34.60
2018-11-02T04:09:54.244Z,37.13
2018-11-02T04:12:22.901Z,36.60
2018-11-02T04:14:51.518Z,34.73
2018-11-02T04:17:20.217Z,36.23
2018-11-02T04:19:48.888Z,35.63
2018-11-02T04:22:17.665Z,37.23
2018-11-02T04:24:46.338Z,33.57
2018-11-02T04:27:14.975Z,35.10
2018-11-02T04:29:43.667Z,35.57
2018-11-02T04:32:12.317Z,35.43
2018-11-02T04:34:41.023Z,32.83
2018-11-02T04:37:09.689Z,34.60
2018-11-02T04:39:38.390Z,34.17
2018-11-02T04:42:07.083Z,33.70
2018-11-02T04:44:35.782Z,32.93
2018-11-02T04:47:04.528Z,33.63
2018-11-02T04:49:33.223Z,34.33
2018-11-02T04:52:01.885Z,33.40
2018-11-02T04:54:30.569Z,33.93
2018-11-02T04:56:59.277Z,36.67
2018-11-02T04:59:27.988Z,36.37
2018-11-02T05:01:56.780Z,37.27
2018-11-02T05:04:25.441Z,35.83
2018-11-02T05:06:54.151Z,35.33
2018-11-02T05:09:22.944Z,36.10
2018-11-02T05:11:51.697Z,36.73
2018-11-02T05:14:20.447Z,35.90
2018-11-02T05:16:49.148Z,38.20
2018-11-02T05:19:17.783Z,36.60
2018-11-02T05:21:46.442Z,36.53
2018-11-02T05:24:15.044Z,36.70
2018-11-02T05:26:43.793Z,36.87
2018-11-02T05:29:12.449Z,40.33
2018-11-02T05:31:41.189Z,35.83
2018-11-02T05:34:09.928Z,38.33
2018-11-02T05:36:38.694Z,38.63
2018-11-02T05:39:09.936Z,40.70
2018-11-02T05:41:38.653Z,35.23
2018-11-02T05:44:07.517Z,38.97
2018-11-02T05:46:36.521Z,40.30
2018-11-02T05:49:05.453Z,38.73
2018-11-02T05:51:34.176Z,37.73
2018-11-02T05:54:02.900Z,38.17
2018-11-02T05:56:31.647Z,32.43
2018-11-02T05:59:00.286Z,3.73
2018-11-02T06:01:29.050Z,4.17
2018-11-02T06:03:57.682Z,4.53
2018-11-02T06:06:26.355Z,4.07
2018-11-02T06:08:55.039Z,3.93
2018-11-02T06:11:23.812Z,4.33
2018-11-02T06:13:52.490Z,3.50
2018-11-02T06:16:21.213Z,5.50
2018-11-02T06:18:49.968Z,5.07
2018-11-02T06:21:18.609Z,3.43
2018-11-02T06:23:47.296Z,4.63
2018-11-02T06:26:15.925Z,4.27
2018-11-02T06:28:44.565Z,3.93
2018-11-02T06:31:13.210Z,4.00
2018-11-02T06:33:42.049Z,3.67
2018-11-02T06:36:10.804Z,3.83
2018-11-02T06:38:39.558Z,4.67
2018-11-02T06:41:08.162Z,3.97
2018-11-02T06:43:36.883Z,4.23
2018-11-02T06:46:05.640Z,4.13
2018-11-02T06:48:34.354Z,3.57
2018-11-02T06:51:03.167Z,3.97
2018-11-02T06:53:31.754Z,4.63
2018-11-02T06:56:00.465Z,3.63
2018-11-02T06:58:29.132Z,4.30
2018-11-02T07:00:57.753Z,4.47
2018-11-02T07:03:26.424Z,4.60
2018-11-02T07:05:55.277Z,4.23
2018-11-02T07:08:24.054Z,3.87
2018-11-02T07:10:52.664Z,4.73
2018-11-02T07:13:21.627Z,4.00
2018-11-02T07:15:50.294Z,4.47
2018-11-02T07:18:18.945Z,3.97
2018-11-02T07:20:47.668Z,4.10
2018-11-02T07:23:16.269Z,3.93
2018-11-02T07:25:44.918Z,3.53
2018-11-02T07:28:13.619Z,3.73
2018-11-02T07:30:42.278Z,5.47
2018-11-02T07:33:10.970Z,4.17
2018-11-02T07:35:39.577Z,3.70
2018-11-02T07:38:08.476Z,5.17
2018-11-02T07:40:37.180Z,5.93
2018-11-02T07:43:05.883Z,3.80
2018-11-02T07:45:34.540Z,5.40
2018-11-02T07:48:03.226Z,4.20
2018-11-02T07:50:31.868Z,5.17
2018-11-02T07:53:00.518Z,4.40
2018-11-02T07:55:29.184Z,4.07
2018-11-02T07:57:57.862Z,4.40
2018-11-02T08:00:26.563Z,4.73
2018-11-02T08:02:55.210Z,5.00
2018-11-02T08:05:23.879Z,4.27
2018-11-02T08:07:52.602Z,4.60
2018-11-02T08:10:21.352Z,31.50
2018-11-02T08:12:49.985Z,31.13
2018-11-02T08:15:18.809Z,29.40
2018-11-02T08:17:47.593Z,27.27
2018-11-02T08:20:16.138Z,28.33
2018-11-02T08:22:44.882Z,28.63
2018-11-02T08:25:13.779Z,27.50
2018-11-02T08:27:42.654Z,30.03
2018-11-02T08:30:12.210Z,29.47
2018-11-02T08:32:41.314Z,31.23
2018-11-02T08:35:11.997Z,25.57
2018-11-02T08:37:41.070Z,27.30
2018-11-02T08:40:10.910Z,29.27
2018-11-02T08:42:39.550Z,28.37
2018-11-02T08:45:08.672Z,26.48
2018-11-02T08:47:37.386Z,27.70
2018-11-02T08:50:07.217Z,26.77
2018-11-02T08:52:35.881Z,28.90
2018-11-02T08:55:04.926Z,31.07
2018-11-02T08:57:33.667Z,30.77
2018-11-02T09:00:02.452Z,31.42
2018-11-02T09:02:31.233Z,27.98
2018-11-02T09:04:59.910Z,28.30
2018-11-02T09:07:28.573Z,27.77
2018-11-02T09:09:57.177Z,26.45
2018-11-02T09:12:25.963Z,26.48
2018-11-02T09:14:54.616Z,27.77
2018-11-02T09:17:23.385Z,26.25
2018-11-02T09:19:52.370Z,25.52
2018-11-02T09:22:21.103Z,25.68
2018-11-02T09:24:49.774Z,23.57
2018-11-02T09:27:18.455Z,25.92
2018-11-02T09:29:47.066Z,25.43
2018-11-02T09:32:15.719Z,25.85
2018-11-02T09:34:44.364Z,24.80
2018-11-02T09:37:13.034Z,25.55
2018-11-02T09:39:41.686Z,24.55
2018-11-02T09:42:10.337Z,24.72
2018-11-02T09:44:39.041Z,24.27
2018-11-02T09:47:07.726Z,25.62
2018-11-02T09:49:36.431Z,21.52
2018-11-02T09:52:05.254Z,21.15
2018-11-02T09:54:33.862Z,19.23
2018-11-02T09:57:02.581Z,20.05
2018-11-02T09:59:31.322Z,18.52
2018-11-02T10:01:59.995Z,19.25
2018-11-02T10:04:28.677Z,18.02
2018-11-02T10:06:57.333Z,19.80
2018-11-02T10:09:26.156Z,20.48
2018-11-02T10:11:54.814Z,18.05
2018-11-02T10:14:23.710Z,18.75
2018-11-02T10:16:52.429Z,19.32
2018-11-02T10:19:21.825Z,19.20
2018-11-02T10:21:50.803Z,19.65
2018-11-02T10:24:19.479Z,18.48
2018-11-02T10:26:48.688Z,17.85
2018-11-02T10:29:17.553Z,17.67
2018-11-02T10:31:46.414Z,17.80
2018-11-02T10:34:15.110Z,17.87
2018-11-02T10:36:45.125Z,17.92
2018-11-02T10:39:15.117Z,17.15
2018-11-02T10:41:47.561Z,17.75
2018-11-02T10:44:18.200Z,18.87
2018-11-02T10:46:47.745Z,17.15
2018-11-02T10:49:16.502Z,17.95
2018-11-02T10:51:45.215Z,15.88
2018-11-02T10:54:14.959Z,17.52
2018-11-02T10:56:43.702Z,17.37
2018-11-02T10:59:12.375Z,18.03
2018-11-02T11:01:46.304Z,16.85
2018-11-02T11:04:15.182Z,15.80
2018-11-02T11:06:43.837Z,17.17
2018-11-02T11:09:13.510Z,16.80
2018-11-02T11:11:42.775Z,15.10
2018-11-02T11:14:11.614Z,16.85
2018-11-02T11:16:40.477Z,15.72
2018-11-02T11:19:10.052Z,16.60
2018-11-02T11:21:39.811Z,16.00
2018-11-02T11:24:08.601Z,16.55
2018-11-02T11:26:37.842Z,17.82
2018-11-02T11:29:07.130Z,17.02
2018-11-02T11:31:36.494Z,16.73
2018-11-02T11:34:05.923Z,17.20
2018-11-02T11:36:34.648Z,16.40
2018-11-02T11:39:03.641Z,16.30
2018-11-02T11:41:32.313Z,15.15
2018-11-02T11:44:01.025Z,13.53
2018-11-02T11:46:30.004Z,15.83
2018-11-02T11:48:59.789Z,15.48
2018-11-02T11:51:29.545Z,14.87
2018-11-02T11:53:59.650Z,16.15
2018-11-02T11:56:28.340Z,12.50
2018-11-02T11:58:57.105Z,12.95
2018-11-02T12:01:26.029Z,13.00
2018-11-02T12:03:54.842Z,13.18
2018-11-02T12:06:23.515Z,13.03
2018-11-02T12:08:52.241Z,12.50
2018-11-02T12:11:21.721Z,12.85
2018-11-02T12:13:50.445Z,12.63
2018-11-02T12:16:19.152Z,12.40
2018-11-02T12:18:47.839Z,13.17
2018-11-02T12:21:16.609Z,13.40
2018-11-02T12:23:45.687Z,13.93
2018-11-02T12:26:14.713Z,13.63
2018-11-02T12:28:43.448Z,13.93
2018-11-02T12:31:12.067Z,13.77
2018-11-02T12:33:40.771Z,12.30
2018-11-02T12:36:09.465Z,13.60
2018-11-02T12:38:38.180Z,13.67
2018-11-02T12:41:06.994Z,12.87
2018-11-02T12:43:35.750Z,12.53
2018-11-02T12:46:04.330Z,12.63
2018-11-02T12:48:33.073Z,13.30
2018-11-02T12:51:01.710Z,11.57
2018-11-02T12:53:30.731Z,11.63
2018-11-02T12:56:00.021Z,12.43
2018-11-02T12:58:28.878Z,11.67
2018-11-02T13:00:57.589Z,12.57
2018-11-02T13:03:26.309Z,12.80
2018-11-02T13:05:55.154Z,11.33
2018-11-02T13:08:24.031Z,11.30
2018-11-02T13:10:52.764Z,11.80
2018-11-02T13:13:21.615Z,12.07
2018-11-02T13:15:50.297Z,11.50
2018-11-02T13:18:20.448Z,11.50
2018-11-02T13:20:49.122Z,11.37
2018-11-02T13:23:18.058Z,11.97
2018-11-02T13:25:46.809Z,11.77
2018-11-02T13:28:15.444Z,11.40
2018-11-02T13:30:45.547Z,11.93
2018-11-02T13:33:14.268Z,10.73
2018-11-02T13:35:43.270Z,11.20
2018-11-02T13:38:12.035Z,10.20
2018-11-02T13:40:40.743Z,11.20
2018-11-02T13:43:10.413Z,11.63
2018-11-02T13:45:39.038Z,11.90
2018-11-02T13:48:07.729Z,11.40
2018-11-02T13:50:36.694Z,11.33
2018-11-02T13:53:05.799Z,11.17
2018-11-02T13:55:34.801Z,10.77
2018-11-02T13:58:03.465Z,10.93
2018-11-02T14:00:32.110Z,10.13
2018-11-02T14:03:00.729Z,11.73
2018-11-02T14:05:29.402Z,10.10
2018-11-02T14:07:58.138Z,10.40
2018-11-02T14:10:26.837Z,9.70
2018-11-02T14:12:55.553Z,10.73
2018-11-02T14:15:24.281Z,10.00
2018-11-02T14:17:53.313Z,9.10
2018-11-02T14:20:22.138Z,10.07
2018-11-02T14:22:50.782Z,9.50
2018-11-02T14:25:19.416Z,10.13
2018-11-02T14:27:48.107Z,10.83
2018-11-02T14:30:17.786Z,10.37
2018-11-02T14:32:47.337Z,10.53
2018-11-02T14:35:15.981Z,11.20
2018-11-02T14:37:44.719Z,10.63
2018-11-02T14:40:13.490Z,10.50
2018-11-02T14:42:42.696Z,10.70
2018-11-02T14:45:13.210Z,11.57
2018-11-02T14:47:42.178Z,11.17
2018-11-02T14:50:11.520Z,11.13
2018-11-02T14:52:40.293Z,11.37
2018-11-02T14:55:09.422Z,10.87
2018-11-02T14:57:39.021Z,10.23
2018-11-02T15:00:10.448Z,11.80
2018-11-02T15:02:39.520Z,10.73
2018-11-02T15:05:09.701Z,10.67
2018-11-02T15:07:38.810Z,10.87
2018-11-02T15:10:07.946Z,10.40
2018-11-02T15:12:37.158Z,10.67
2018-11-02T15:15:07.080Z,9.83
2018-11-02T15:17:35.734Z,10.17
2018-11-02T15:20:04.871Z,10.37
2018-11-02T15:22:33.533Z,9.83
2018-11-02T15:25:02.188Z,10.33
2018-11-02T15:27:30.837Z,9.90
2018-11-02T15:29:59.618Z,9.20
2018-11-02T15:32:28.318Z,9.50
2018-11-02T15:34:57.012Z,10.20
2018-11-02T15:37:26.366Z,9.23
2018-11-02T15:39:55.129Z,9.87
2018-11-02T15:42:23.804Z,9.97
2018-11-02T15:44:52.470Z,9.13
2018-11-02T15:47:21.122Z,9.80
2018-11-02T15:49:49.825Z,10.23
2018-11-02T15:52:18.511Z,9.90
2018-11-02T15:54:47.230Z,12.27
2018-11-02T15:57:17.269Z,11.33
2018-11-02T15:59:46.101Z,12.77
2018-11-02T16:02:14.745Z,11.77
2018-11-02T16:04:43.443Z,12.70
2018-11-02T16:07:12.963Z,12.03
2018-11-02T16:09:41.789Z,11.90
2018-11-02T16:12:10.451Z,12.90
2018-11-02T16:14:39.092Z,12.30
2018-11-02T16:17:07.804Z,11.80
2018-11-02T16:19:36.541Z,10.93
2018-11-02T16:22:05.712Z,10.80
2018-11-02T16:24:34.488Z,10.90
2018-11-02T16:27:03.837Z,13.00
2018-11-02T16:29:32.566Z,11.83
2018-11-02T16:32:01.513Z,12.50
2018-11-02T16:34:30.218Z,12.83
2018-11-02T16:36:58.913Z,13.27
2018-11-02T16:39:27.628Z,13.47
2018-11-02T16:41:56.533Z,14.20
2018-11-02T16:44:25.678Z,13.87
2018-11-02T16:46:54.370Z,14.47
2018-11-02T16:49:23.021Z,15.60
2018-11-02T16:51:52.585Z,15.87
2018-11-02T16:54:21.437Z,16.50
2018-11-02T16:56:50.081Z,17.33
2018-11-02T16:59:19.222Z,19.03
2018-11-02T17:01:47.924Z,19.80
2018-11-02T17:04:16.592Z,22.10
2018-11-02T17:06:45.581Z,23.00
2018-11-02T17:09:14.309Z,24.73
2018-11-02T17:11:43.044Z,25.50
2018-11-02T17:14:11.755Z,26.07
2018-11-02T17:16:40.445Z,26.30
2018-11-02T17:19:09.176Z,29.90
2018-11-02T17:21:37.881Z,30.10
2018-11-02T17:24:06.682Z,32.80
2018-11-02T17:26:35.836Z,34.03
2018-11-02T17:29:04.955Z,39.13
2018-11-02T17:31:33.731Z,35.17
2018-11-02T17:34:02.381Z,30.77
2018-11-02T17:36:31.069Z,33.67
2018-11-02T17:38:59.761Z,28.60
2018-11-02T17:41:28.454Z,28.67
2018-11-02T17:43:57.103Z,29.83
2018-11-02T17:46:25.827Z,23.60
2018-11-02T17:48:54.526Z,25.73
2018-11-02T17:51:23.167Z,25.97
2018-11-02T17:53:51.802Z,24.37
2018-11-02T17:56:20.509Z,23.10
2018-11-02T17:58:49.170Z,25.90
2018-11-02T18:01:17.834Z,27.00
2018-11-02T18:03:46.509Z,23.03
2018-11-02T18:06:15.277Z,25.67
2018-11-02T18:08:43.868Z,24.77
2018-11-02T18:11:12.542Z,27.10
2018-11-02T18:13:41.298Z,27.73
2018-11-02T18:16:09.992Z,24.83
2018-11-02T18:18:38.711Z,24.20
2018-11-02T18:21:07.311Z,25.43
2018-11-02T18:23:35.964Z,26.07
2018-11-02T18:26:04.736Z,25.93
2018-11-02T18:28:33.360Z,27.40
2018-11-02T18:31:02.081Z,25.60
2018-11-02T18:33:30.715Z,26.93
2018-11-02T18:36:00.303Z,27.57
2018-11-02T18:38:28.940Z,28.40
2018-11-02T18:40:57.671Z,30.00
2018-11-02T18:43:26.301Z,31.00
2018-11-02T18:45:55.058Z,30.43
2018-11-02T18:48:23.840Z,30.33
2018-11-02T18:50:52.410Z,29.63
2018-11-02T18:53:21.362Z,31.17
2018-11-02T18:55:50.289Z,30.33
2018-11-02T18:58:19.092Z,30.87
2018-11-02T19:00:47.770Z,32.97
2018-11-02T19:03:16.442Z,30.23
2018-11-02T19:05:45.258Z,29.70
2018-11-02T19:08:13.850Z,25.57
2018-11-02T19:10:42.512Z,30.57
2018-11-02T19:13:11.250Z,35.60
2018-11-02T19:15:40.691Z,36.40
2018-11-02T19:18:09.341Z,38.90
2018-11-02T19:20:37.985Z,39.17
2018-11-02T19:23:06.707Z,34.40
2018-11-02T19:25:35.369Z,35.07
2018-11-02T19:28:04.054Z,39.33
2018-11-02T19:30:32.853Z,36.23
2018-11-02T19:33:01.581Z,32.53
2018-11-02T19:35:33.450Z,31.37
2018-11-02T19:38:02.069Z,29.27
2018-11-02T19:40:30.746Z,34.13
2018-11-02T19:42:59.420Z,37.60
2018-11-02T19:45:28.084Z,39.03
2018-11-02T19:48:02.355Z,35.10
2018-11-02T19:50:31.111Z,40.27
2018-11-02T19:52:59.792Z,36.70
2018-11-02T19:55:28.473Z,41.53
2018-11-02T19:57:58.032Z,43.40
2018-11-02T20:00:26.695Z,39.20
2018-11-02T20:02:55.368Z,41.67
2018-11-02T20:05:24.042Z,41.43
2018-11-02T20:07:52.775Z,37.43
2018-11-02T20:10:21.440Z,40.83
2018-11-02T20:12:50.125Z,37.37
2018-11-02T20:15:19.022Z,40.57
2018-11-02T20:17:48.320Z,38.90
2018-11-02T20:20:17.566Z,36.87
2018-11-02T20:22:46.300Z,34.47
2018-11-02T20:25:16.260Z,33.33
2018-11-02T20:27:45.062Z,33.50
2018-11-02T20:30:15.676Z,32.40
2018-11-02T20:32:44.582Z,28.43
2018-11-02T20:35:13.362Z,31.37
2018-11-02T20:37:42.042Z,31.57
2018-11-02T20:40:16.274Z,31.07
2018-11-02T20:42:45.637Z,30.40
2018-11-02T20:45:14.895Z,30.20
2018-11-02T20:47:49.128Z,29.27
2018-11-02T20:50:18.010Z,29.70
2018-11-02T20:52:46.694Z,29.30
2018-11-02T20:55:15.795Z,31.37
2018-11-02T20:57:44.563Z,29.23
2018-11-02T21:00:19.950Z,30.93
2018-11-02T21:02:48.607Z,31.50
2018-11-02T21:05:18.345Z,32.13
2018-11-02T21:07:47.687Z,34.03
2018-11-02T21:10:17.545Z,31.60
2018-11-02T21:12:46.297Z,32.37
2018-11-02T21:15:17.269Z,33.73
2018-11-02T21:17:46.073Z,32.30
2018-11-02T21:20:16.094Z,33.97
2018-11-02T21:22:44.767Z,32.67
2018-11-02T21:25:14.042Z,31.50
2018-11-02T21:27:43.372Z,33.27
2018-11-02T21:30:14.754Z,35.77
2018-11-02T21:32:44.001Z,39.67
2018-11-02T21:35:12.763Z,49.60
2018-11-02T21:37:41.464Z,45.87
2018-11-02T21:40:13.478Z,43.50
2018-11-02T21:42:42.789Z,39.07
2018-11-02T21:45:12.639Z,33.93
2018-11-02T21:47:41.607Z,34.23
2018-11-02T21:50:12.289Z,37.20
2018-11-02T21:52:41.081Z,41.77
2018-11-02T21:55:09.956Z,41.53
2018-11-02T21:57:38.772Z,41.20
2018-11-02T22:00:13.483Z,41.60
2018-11-02T22:02:42.182Z,38.63
2018-11-02T22:05:12.327Z,38.17
2018-11-02T22:07:41.702Z,36.50
2018-11-02T22:10:11.311Z,34.50
2018-11-02T22:12:40.078Z,39.03
2018-11-02T22:15:09.313Z,53.20
2018-11-02T22:17:37.985Z,55.40
2018-11-02T22:20:08.305Z,54.00
2018-11-02T22:22:37.018Z,49.47
2018-11-02T22:25:06.900Z,47.63
2018-11-02T22:27:35.834Z,42.23
2018-11-02T22:30:10.640Z,39.50
2018-11-02T22:32:39.420Z,33.97
2018-11-02T22:35:08.210Z,33.43
2018-11-02T22:37:36.847Z,35.57
2018-11-02T22:40:06.837Z,31.90
2018-11-02T22:42:35.526Z,30.80
2018-11-02T22:45:04.352Z,28.83
2018-11-02T22:47:33.002Z,31.87
2018-11-02T22:50:01.636Z,32.77
2018-11-02T22:52:30.319Z,49.90
2018-11-02T22:54:58.977Z,57.57
2018-11-02T22:57:27.624Z,64.50
2018-11-02T22:59:56.250Z,64.00
2018-11-02T23:02:24.960Z,68.27
2018-11-02T23:04:53.621Z,68.30
2018-11-02T23:07:22.281Z,72.03
2018-11-02T23:09:50.988Z,69.83
2018-11-02T23:12:19.710Z,68.80
2018-11-02T23:14:48.733Z,70.03
2018-11-02T23:17:17.506Z,55.57
2018-11-02T23:19:46.121Z,54.43
2018-11-02T23:22:14.830Z,53.30
2018-11-02T23:24:43.469Z,49.40
2018-11-02T23:27:12.201Z,44.90
2018-11-02T23:29:40.973Z,43.17
2018-11-02T23:32:09.674Z,42.63
2018-11-02T23:34:38.354Z,39.10
2018-11-02T23:37:07.344Z,36.97
2018-11-02T23:39:36.016Z,37.63
2018-11-02T23:42:04.807Z,35.33
2018-11-02T23:44:33.476Z,34.90
2018-11-02T23:47:02.161Z,31.60
2018-11-02T23:49:30.837Z,29.53
2018-11-02T23:51:59.586Z,32.33
2018-11-02T23:54:28.232Z,32.03
2018-11-02T23:56:56.855Z,32.83
2018-11-02T23:59:25.886Z,31.90
